Zhang Ping, China
Current Conditions -  °F | °C
As of 9:00 PM on Tuesday 21 Oct 2014 (Local Time) from ZSAM Reporting Station
Clear Clear  
Wind Chill: 75°   Ceiling: Unl
Heat Index: 75°   Visibility: 4mi
Dew Point: 75°   Wind: 4mph
Humidity: 100%   Direction: 40°NE
Pressure: 29.94"   Gusts: NA
Location:  25.3°N, 117.4°E
Report Text: ZSAM 211300Z 04002MPS 6000 NSC 24/24 Q1014 NOSIG
Loading
Personal Weather Stations






























Interactive Weather Map
Tropical Storm Tracking
New forecast layout! Learn more

10-Day Weather Forecast

Advertisements
Track Severe Weather on mobile